Time;durP1;ratioP1;P1;durP2;ratioP2;P2;SDS_P1;SDS_P2;PMS_P1;PMS_P2;Temp;Humidity;BMP_temperature;BMP_pressure;BME280_temperature;BME280_humidity;BME280_pressure;Samples;Min_cycle;Max_cycle;Signal;HPM_P1;HPM_P2
2022/08/03 00:00:56;;;;;;;5.17;2.63;;;21.30;99.90;;;;;;5067359;28;20475;-82
2022/08/03 00:03:23;;;;;;;5.67;2.80;;;21.20;99.90;;;;;;5066635;28;20454;-81
2022/08/03 00:05:50;;;;;;;2.90;2.20;;;21.20;99.90;;;;;;5067141;28;20465;-83
2022/08/03 00:08:19;;;;;;;4.13;2.70;;;21.20;99.90;;;;;;5069297;28;20450;-84
2022/08/03 00:10:46;;;;;;;5.90;2.33;;;21.20;99.90;;;;;;5071887;28;20484;-82
2022/08/03 00:13:12;;;;;;;4.40;2.50;;;21.20;99.90;;;;;;5073670;28;20519;-85
2022/08/03 00:15:40;;;;;;;2.80;2.10;;;21.20;99.90;;;;;;5067418;28;20531;-78
2022/08/03 00:18:07;;;;;;;3.43;2.53;;;21.10;99.90;;;;;;5061676;28;20515;-78
2022/08/03 00:20:34;;;;;;;4.80;2.90;;;21.20;99.90;;;;;;5061996;28;20848;-80
2022/08/03 00:23:01;;;;;;;4.07;2.70;;;21.20;99.90;;;;;;5061194;28;20456;-81
2022/08/03 00:25:30;;;;;;;5.00;2.33;;;21.10;99.90;;;;;;5061256;28;21207;-79
2022/08/03 00:27:57;;;;;;;3.13;2.23;;;21.10;99.90;;;;;;5061870;28;20456;-80
2022/08/03 00:30:23;;;;;;;6.30;2.83;;;21.10;99.90;;;;;;5061124;28;20559;-80
2022/08/03 00:32:50;;;;;;;5.37;2.63;;;21.10;99.90;;;;;;5060838;28;21059;-78
2022/08/03 00:35:17;;;;;;;2.73;2.00;;;21.00;99.90;;;;;;5060126;28;20452;-79
2022/08/03 00:37:44;;;;;;;3.67;2.13;;;21.00;99.90;;;;;;5059400;28;20516;-79
2022/08/03 00:40:12;;;;;;;4.57;2.87;;;21.00;99.90;;;;;;5059837;28;20480;-81
2022/08/03 00:42:52;;;;;;;3.17;2.33;;;21.00;99.90;;;;;;5060372;28;20833;-80
2022/08/03 00:45:20;;;;;;;4.37;2.33;;;20.90;99.90;;;;;;5061156;28;20431;-82
2022/08/03 00:47:47;;;;;;;4.83;2.13;;;20.90;99.90;;;;;;5062250;28;20456;-79
2022/08/03 00:50:15;;;;;;;6.17;2.17;;;20.90;99.90;;;;;;5061767;28;20559;-80
2022/08/03 00:52:42;;;;;;;2.93;2.27;;;20.90;99.90;;;;;;5062538;28;20499;-82
2022/08/03 00:55:10;;;;;;;4.07;2.60;;;20.90;99.90;;;;;;5061879;28;20479;-79
2022/08/03 00:57:37;;;;;;;3.00;2.23;;;20.90;99.90;;;;;;5062852;28;20876;-80
2022/08/03 01:00:08;;;;;;;4.17;2.43;;;20.90;99.90;;;;;;5063188;28;21055;-79
2022/08/03 01:02:36;;;;;;;4.00;2.77;;;20.90;99.90;;;;;;5062695;28;20456;-79
2022/08/03 01:05:03;;;;;;;3.50;2.10;;;20.90;99.90;;;;;;5059836;28;20502;-80
2022/08/03 01:07:42;;;;;;;4.00;2.30;;;20.90;99.90;;;;;;5061738;28;20521;-80
2022/08/03 01:10:17;;;;;;;2.73;1.73;;;20.80;99.90;;;;;;5062149;28;20472;-79
2022/08/03 01:12:52;;;;;;;3.10;2.33;;;20.80;99.90;;;;;;5061669;28;20574;-78
2022/08/03 01:15:28;;;;;;;4.40;2.37;;;20.80;99.90;;;;;;5061362;28;20795;-79
2022/08/03 01:17:59;;;;;;;4.30;2.23;;;20.80;99.90;;;;;;5060271;28;21019;-80
2022/08/03 01:20:31;;;;;;;4.67;2.20;;;20.80;99.90;;;;;;5040562;28;20512;-79
2022/08/03 01:23:10;;;;;;;2.90;2.50;;;20.80;99.90;;;;;;5040454;28;20452;-78
2022/08/03 01:25:55;;;;;;;3.90;2.50;;;20.70;99.90;;;;;;5054489;28;20523;-81
2022/08/03 01:28:38;;;;;;;3.40;1.93;;;20.70;99.90;;;;;;5060906;28;20432;-80
2022/08/03 01:31:10;;;;;;;3.40;2.10;;;20.70;99.90;;;;;;5061489;28;20470;-80
2022/08/03 01:33:41;;;;;;;4.40;2.17;;;20.70;99.90;;;;;;5059760;28;20482;-81
2022/08/03 01:36:13;;;;;;;3.13;2.00;;;20.70;99.90;;;;;;5059399;28;20867;-79
2022/08/03 01:38:46;;;;;;;3.90;2.03;;;20.70;99.90;;;;;;5059831;28;20487;-80
2022/08/03 01:41:17;;;;;;;2.87;2.20;;;20.70;99.90;;;;;;5059946;28;20603;-80
2022/08/03 01:43:49;;;;;;;5.60;2.17;;;20.70;99.90;;;;;;5058961;28;20526;-81
2022/08/03 01:46:19;;;;;;;7.37;2.30;;;20.70;99.90;;;;;;5058914;28;20542;-81
2022/08/03 01:48:48;;;;;;;2.43;1.73;;;20.70;99.90;;;;;;5058584;28;20852;-82
2022/08/03 01:51:18;;;;;;;3.17;1.97;;;20.70;99.90;;;;;;5058371;28;20495;-80
2022/08/03 01:53:45;;;;;;;2.50;1.70;;;20.60;99.90;;;;;;5058188;28;20567;-79
2022/08/03 01:56:13;;;;;;;4.40;2.40;;;20.60;99.90;;;;;;5059846;28;20454;-77
2022/08/03 01:58:42;;;;;;;3.70;2.07;;;20.60;99.90;;;;;;5060201;28;20462;-79
2022/08/03 02:01:10;;;;;;;3.20;2.00;;;20.60;99.90;;;;;;5060194;28;20539;-79
2022/08/03 02:03:42;;;;;;;3.47;2.30;;;20.60;99.90;;;;;;5059527;28;20814;-79
2022/08/03 02:06:10;;;;;;;4.43;2.40;;;20.60;99.90;;;;;;5061363;28;20878;-78
2022/08/03 02:08:38;;;;;;;2.90;2.10;;;20.50;99.90;;;;;;5059880;28;20455;-78
2022/08/03 02:11:06;;;;;;;4.40;1.90;;;20.60;99.90;;;;;;5060863;28;21059;-81
2022/08/03 02:13:35;;;;;;;2.90;1.90;;;20.60;99.90;;;;;;5060650;28;20487;-80
2022/08/03 02:16:03;;;;;;;3.90;1.90;;;20.50;99.90;;;;;;5061285;28;20530;-81
2022/08/03 02:18:31;;;;;;;3.40;2.20;;;20.50;99.90;;;;;;5061800;28;21248;-80
2022/08/03 02:21:01;;;;;;;2.67;2.00;;;20.60;99.90;;;;;;5062203;28;20470;-80
2022/08/03 02:23:28;;;;;;;2.83;2.03;;;20.50;99.90;;;;;;5060216;28;20448;-80
2022/08/03 02:25:58;;;;;;;4.53;2.30;;;20.50;99.90;;;;;;5060717;28;20532;-80
2022/08/03 02:28:31;;;;;;;3.23;1.80;;;20.50;99.90;;;;;;5061616;28;20444;-82
2022/08/03 02:31:00;;;;;;;5.10;2.10;;;20.50;99.90;;;;;;5064862;28;20470;-81
2022/08/03 02:33:32;;;;;;;2.90;2.20;;;20.40;99.90;;;;;;5064579;28;20486;-81
2022/08/03 02:36:02;;;;;;;3.70;2.03;;;20.40;99.90;;;;;;5065580;28;20479;-80
2022/08/03 02:38:33;;;;;;;3.63;2.00;;;20.40;99.90;;;;;;5065235;28;20463;-79
2022/08/03 02:41:02;;;;;;;4.83;2.07;;;20.40;99.90;;;;;;5064553;28;20479;-81
2022/08/03 02:43:31;;;;;;;5.43;2.67;;;20.40;99.90;;;;;;5063306;28;20491;-81
2022/08/03 02:45:58;;;;;;;6.33;2.80;;;20.40;99.90;;;;;;5064095;28;20480;-82
2022/08/03 02:48:30;;;;;;;4.20;2.37;;;20.40;99.90;;;;;;5065815;28;20464;-81
2022/08/03 02:51:02;;;;;;;3.50;1.90;;;20.30;99.90;;;;;;5064359;28;20498;-81
2022/08/03 02:53:30;;;;;;;4.53;2.10;;;20.30;99.90;;;;;;5065131;28;20484;-82
2022/08/03 02:55:58;;;;;;;3.53;2.33;;;20.30;99.90;;;;;;5066786;28;20515;-83
2022/08/03 02:58:26;;;;;;;5.17;2.30;;;20.30;99.90;;;;;;5048286;28;20539;-82
2022/08/03 03:00:53;;;;;;;5.97;2.07;;;20.30;99.90;;;;;;5052279;28;20555;-79
2022/08/03 03:03:21;;;;;;;4.93;2.23;;;20.20;99.90;;;;;;5064609;28;20943;-81
2022/08/03 03:05:49;;;;;;;3.63;2.27;;;20.20;99.90;;;;;;5064918;28;20448;-78
2022/08/03 03:08:19;;;;;;;3.87;2.23;;;20.20;99.90;;;;;;5065288;28;20459;-78
2022/08/03 03:10:47;;;;;;;3.83;2.27;;;20.20;99.90;;;;;;5063392;28;20464;-79
2022/08/03 03:13:15;;;;;;;3.00;2.00;;;20.20;99.90;;;;;;5065721;28;20924;-78
2022/08/03 03:15:44;;;;;;;3.60;2.30;;;20.10;99.90;;;;;;5066781;28;20523;-80
2022/08/03 03:18:11;;;;;;;3.80;2.77;;;20.10;99.90;;;;;;5066403;28;20448;-83
2022/08/03 03:20:39;;;;;;;3.27;2.17;;;20.10;99.90;;;;;;5065633;28;20499;-81
2022/08/03 03:23:07;;;;;;;3.37;2.10;;;20.10;99.90;;;;;;5067320;28;20444;-81
2022/08/03 03:25:36;;;;;;;3.10;2.40;;;20.00;99.90;;;;;;5067427;28;20519;-81
2022/08/03 03:28:04;;;;;;;2.93;2.37;;;20.00;99.90;;;;;;5068274;28;20494;-79
2022/08/03 03:30:31;;;;;;;4.70;2.30;;;20.00;99.90;;;;;;5065008;28;20472;-81
2022/08/03 03:32:58;;;;;;;2.87;1.80;;;19.90;99.90;;;;;;5066379;28;20478;-80
2022/08/03 03:35:26;;;;;;;2.90;2.10;;;19.90;99.90;;;;;;5067212;28;20475;-81
2022/08/03 03:37:53;;;;;;;2.80;2.30;;;19.90;99.90;;;;;;5069331;28;20483;-83
2022/08/03 03:40:20;;;;;;;3.60;2.40;;;19.90;99.90;;;;;;5078762;28;20710;-81
2022/08/03 03:42:49;;;;;;;3.50;2.20;;;19.90;99.90;;;;;;5072261;28;20455;-77
2022/08/03 03:45:17;;;;;;;3.63;2.40;;;19.90;99.90;;;;;;5066163;28;20476;-80
2022/08/03 03:47:44;;;;;;;5.23;2.37;;;19.90;99.90;;;;;;5063074;28;20514;-79
2022/08/03 03:50:11;;;;;;;3.80;2.63;;;19.90;99.90;;;;;;5062470;28;20499;-79
2022/08/03 03:52:38;;;;;;;6.27;3.10;;;19.80;99.90;;;;;;5062477;28;20448;-80
2022/08/03 03:55:06;;;;;;;2.70;2.13;;;19.80;99.90;;;;;;5060283;28;20479;-80
2022/08/03 03:57:34;;;;;;;3.83;2.67;;;19.80;99.90;;;;;;5059018;28;20462;-80
2022/08/03 04:00:03;;;;;;;4.90;2.63;;;19.80;99.90;;;;;;5060490;28;20511;-79
2022/08/03 04:02:30;;;;;;;4.27;2.60;;;19.80;99.90;;;;;;5061985;28;20471;-78
2022/08/03 04:11:00;;;;;;;2.33;1.57;;;19.80;99.90;;;;;;5034199;28;20498;-78
2022/08/03 04:13:31;;;;;;;3.77;1.93;;;19.90;99.90;;;;;;5032266;28;20580;-78
2022/08/03 04:16:01;;;;;;;4.50;2.87;;;19.90;99.90;;;;;;5033488;28;20879;-78
2022/08/03 04:18:30;;;;;;;2.83;2.47;;;20.00;99.90;;;;;;5038759;28;20448;-79
2022/08/03 04:21:02;;;;;;;2.73;2.20;;;20.10;99.90;;;;;;5052839;28;20834;-79
2022/08/03 04:23:33;;;;;;;3.70;2.27;;;20.10;99.90;;;;;;5052355;28;20442;-78
2022/08/03 04:26:02;;;;;;;6.50;2.70;;;20.10;99.90;;;;;;5052846;28;20527;-78
2022/08/03 04:28:30;;;;;;;3.60;2.80;;;20.00;99.90;;;;;;5052819;28;20506;-79
2022/08/03 04:30:59;;;;;;;4.03;3.10;;;20.10;99.90;;;;;;5052547;28;20586;-78
2022/08/03 04:33:27;;;;;;;3.93;2.33;;;20.00;99.90;;;;;;5052051;28;20487;-79
2022/08/03 04:35:57;;;;;;;5.67;2.73;;;20.00;99.90;;;;;;5052392;28;20463;-79
2022/08/03 04:38:25;;;;;;;2.90;2.20;;;20.00;99.90;;;;;;5052753;28;20517;-77
2022/08/03 04:40:54;;;;;;;3.43;2.63;;;20.00;99.90;;;;;;5052291;28;20494;-78
2022/08/03 04:43:22;;;;;;;3.20;2.70;;;20.00;99.90;;;;;;5051815;28;20547;-80
2022/08/03 04:45:50;;;;;;;3.77;2.80;;;20.00;99.90;;;;;;5052531;28;20909;-80
2022/08/03 04:48:19;;;;;;;5.23;3.13;;;20.00;99.90;;;;;;5052773;28;20539;-78
2022/08/03 04:50:47;;;;;;;3.33;2.37;;;20.00;99.90;;;;;;5051750;28;20571;-79
2022/08/03 04:53:14;;;;;;;4.63;2.60;;;20.10;99.90;;;;;;5051751;28;20587;-79
2022/08/03 04:55:41;;;;;;;4.60;2.93;;;20.10;99.90;;;;;;5052136;28;21026;-78
2022/08/03 04:58:08;;;;;;;6.70;2.70;;;20.10;99.90;;;;;;5052454;28;20897;-79
2022/08/03 05:00:35;;;;;;;3.30;2.57;;;20.10;99.90;;;;;;5052272;28;20508;-78
2022/08/03 05:03:02;;;;;;;4.50;2.30;;;20.10;99.90;;;;;;5051616;28;20527;-79
2022/08/03 05:05:30;;;;;;;7.53;2.63;;;20.20;99.90;;;;;;5048074;28;20543;-78
2022/08/03 05:07:57;;;;;;;4.43;2.67;;;20.20;99.90;;;;;;5051329;28;20540;-78
2022/08/03 05:10:23;;;;;;;4.17;2.97;;;20.30;99.90;;;;;;5049461;28;20504;-79
2022/08/03 05:12:52;;;;;;;4.97;2.87;;;20.30;99.90;;;;;;5051385;28;20970;-78
2022/08/03 05:15:19;;;;;;;4.63;2.77;;;20.40;99.90;;;;;;5051755;28;20482;-78
2022/08/03 05:17:46;;;;;;;4.00;2.40;;;20.40;99.90;;;;;;5052079;28;20451;-80
2022/08/03 05:20:13;;;;;;;6.67;3.00;;;20.40;99.90;;;;;;5051549;28;20694;-79
2022/08/03 05:22:41;;;;;;;4.73;3.30;;;20.40;99.90;;;;;;5052013;28;20550;-77
2022/08/03 05:25:08;;;;;;;5.27;2.93;;;20.50;99.90;;;;;;5051989;28;20550;-77
2022/08/03 05:27:35;;;;;;;3.33;2.47;;;20.50;99.90;;;;;;5052199;28;20530;-77
2022/08/03 05:30:02;;;;;;;9.93;2.87;;;20.50;99.90;;;;;;5052324;28;20997;-77
2022/08/03 05:32:29;;;;;;;4.50;3.00;;;20.60;99.90;;;;;;5051934;28;20452;-77
2022/08/03 05:34:56;;;;;;;4.60;2.83;;;20.60;99.90;;;;;;5051115;28;20488;-77
2022/08/03 05:37:22;;;;;;;3.50;2.50;;;20.70;99.90;;;;;;5052189;28;20825;-78
2022/08/03 05:39:51;;;;;;;4.07;2.73;;;20.70;99.90;;;;;;5052138;28;20543;-78
2022/08/03 05:42:18;;;;;;;5.60;2.77;;;20.80;99.90;;;;;;5051435;28;20491;-79
2022/08/03 05:44:44;;;;;;;8.23;3.03;;;20.80;99.90;;;;;;5050712;28;21031;-78
2022/08/03 05:47:11;;;;;;;5.37;3.00;;;20.80;99.90;;;;;;5051298;28;20534;-78
2022/08/03 05:49:38;;;;;;;5.80;3.43;;;20.90;99.90;;;;;;5051672;28;20539;-79
2022/08/03 05:52:05;;;;;;;3.73;2.90;;;21.00;99.90;;;;;;5051660;28;20522;-78
2022/08/03 05:54:32;;;;;;;4.30;3.37;;;21.10;99.90;;;;;;5050217;28;20578;-79
2022/08/03 05:57:00;;;;;;;7.73;3.30;;;21.10;99.90;;;;;;5051158;28;20484;-78
2022/08/03 05:59:27;;;;;;;7.27;3.30;;;21.10;99.90;;;;;;5052429;28;20455;-78
2022/08/03 06:01:54;;;;;;;7.80;3.30;;;21.30;99.90;;;;;;5051153;28;20468;-78
2022/08/03 06:04:20;;;;;;;6.53;3.37;;;21.40;99.90;;;;;;5053338;28;20801;-79
2022/08/03 06:06:49;;;;;;;4.97;3.37;;;21.40;99.90;;;;;;5054237;28;20538;-78
2022/08/03 06:09:16;;;;;;;8.30;3.90;;;21.50;99.90;;;;;;5044562;28;20466;-78
2022/08/03 06:11:43;;;;;;;6.80;3.77;;;21.70;99.90;;;;;;5052748;28;21005;-78
2022/08/03 06:14:11;;;;;;;6.67;3.40;;;21.70;99.90;;;;;;5052347;28;20995;-78
2022/08/03 06:16:38;;;;;;;7.13;3.90;;;21.80;99.90;;;;;;5052809;28;20570;-78
2022/08/03 06:19:05;;;;;;;5.07;3.43;;;21.80;99.90;;;;;;5052723;28;20840;-77
2022/08/03 06:21:32;;;;;;;5.63;3.40;;;21.90;99.90;;;;;;5051071;28;20986;-78
2022/08/03 06:23:58;;;;;;;5.83;3.53;;;21.90;99.90;;;;;;5053583;28;20546;-79
2022/08/03 06:26:27;;;;;;;6.00;3.27;;;22.00;99.90;;;;;;5052017;28;20451;-80
2022/08/03 06:28:56;;;;;;;4.70;3.33;;;22.10;99.90;;;;;;5058035;28;20533;-80
2022/08/03 06:31:28;;;;;;;4.70;3.57;;;22.20;99.90;;;;;;5054319;28;20549;-79
2022/08/03 06:33:55;;;;;;;5.63;3.30;;;22.30;99.90;;;;;;5053008;28;20566;-79
2022/08/03 06:36:22;;;;;;;5.00;3.00;;;22.40;99.90;;;;;;5052987;28;20456;-78
2022/08/03 06:38:49;;;;;;;5.97;3.20;;;22.50;99.90;;;;;;5051729;28;20480;-79
2022/08/03 06:41:16;;;;;;;6.97;3.87;;;22.50;99.90;;;;;;5044563;28;21293;-79
2022/08/03 06:43:43;;;;;;;7.43;3.60;;;22.60;99.90;;;;;;5046405;28;20540;-80
2022/08/03 06:46:10;;;;;;;5.57;3.70;;;22.60;99.90;;;;;;5046446;28;20551;-80
2022/08/03 06:48:38;;;;;;;5.03;2.97;;;22.80;99.90;;;;;;5046633;28;20978;-78
2022/08/03 06:51:05;;;;;;;6.37;3.70;;;22.80;99.90;;;;;;5044789;28;21003;-77
2022/08/03 06:53:32;;;;;;;6.60;3.40;;;22.90;99.90;;;;;;5050436;28;20543;-81
2022/08/03 06:55:59;;;;;;;5.70;3.23;;;23.00;99.90;;;;;;5055415;28;20550;-79
2022/08/03 06:58:26;;;;;;;6.97;3.40;;;23.10;99.90;;;;;;5056209;28;20460;-79
2022/08/03 07:00:53;;;;;;;5.30;2.67;;;23.10;99.90;;;;;;5056513;28;20559;-79
2022/08/03 07:03:20;;;;;;;7.43;3.17;;;23.30;99.90;;;;;;5062501;28;20546;-80
2022/08/03 07:05:48;;;;;;;8.90;3.17;;;23.30;99.90;;;;;;5055887;28;20599;-80
2022/08/03 07:08:15;;;;;;;5.17;2.50;;;23.40;99.90;;;;;;5056622;28;20474;-80
2022/08/03 07:10:42;;;;;;;5.70;2.70;;;23.50;99.90;;;;;;5058994;28;20500;-80
2022/08/03 07:13:10;;;;;;;7.73;2.87;;;23.60;99.90;;;;;;5064913;28;20495;-79
2022/08/03 07:15:37;;;;;;;3.40;2.30;;;23.70;99.90;;;;;;5056543;28;20570;-79
2022/08/03 07:18:04;;;;;;;6.93;2.20;;;23.70;99.90;;;;;;5056937;28;20482;-79
2022/08/03 07:20:31;;;;;;;7.53;3.13;;;23.90;99.90;;;;;;5052519;28;20480;-80
2022/08/03 07:22:59;;;;;;;6.53;3.03;;;23.90;99.90;;;;;;5055302;28;21009;-78
2022/08/03 07:25:26;;;;;;;4.90;2.47;;;24.00;99.90;;;;;;5054200;28;20555;-78
2022/08/03 07:27:53;;;;;;;4.83;2.60;;;24.10;99.90;;;;;;5055660;28;20536;-79
2022/08/03 07:30:20;;;;;;;4.47;2.57;;;24.10;99.90;;;;;;5054234;28;20472;-80
2022/08/03 07:32:47;;;;;;;6.37;2.10;;;24.10;99.90;;;;;;5053916;28;20445;-79
2022/08/03 07:35:14;;;;;;;7.40;2.40;;;24.20;99.90;;;;;;5048500;28;20495;-80
2022/08/03 07:37:40;;;;;;;4.53;2.83;;;24.20;99.90;;;;;;5051428;28;20487;-78
2022/08/03 07:40:09;;;;;;;3.63;2.37;;;24.30;99.90;;;;;;5054698;28;20835;-79
2022/08/03 07:42:36;;;;;;;4.57;2.63;;;24.40;99.90;;;;;;5055269;28;20980;-79
2022/08/03 07:45:03;;;;;;;4.40;2.60;;;24.50;99.90;;;;;;5054280;28;20898;-77
2022/08/03 07:47:31;;;;;;;3.30;2.40;;;24.50;99.90;;;;;;5055990;28;20870;-78
2022/08/03 07:49:58;;;;;;;8.30;3.03;;;24.70;99.90;;;;;;5055237;28;20996;-77
2022/08/03 07:55:10;;;;;;;5.30;3.07;;;24.80;99.90;;;;;;5055494;28;20911;-78
2022/08/03 07:57:37;;;;;;;5.07;2.50;;;24.90;99.90;;;;;;5055943;28;21010;-77
2022/08/03 08:00:08;;;;;;;3.17;2.27;;;25.00;99.90;;;;;;5055448;28;20563;-78
2022/08/03 08:02:35;;;;;;;4.30;2.60;;;25.10;99.90;;;;;;5052434;28;20816;-78
2022/08/03 08:05:02;;;;;;;5.73;2.80;;;25.20;99.90;;;;;;5055766;28;20543;-77
2022/08/03 08:07:29;;;;;;;4.80;2.40;;;25.30;99.90;;;;;;5055958;28;20526;-81
2022/08/03 08:09:56;;;;;;;4.90;2.27;;;25.30;99.90;;;;;;5055982;28;20495;-77
2022/08/03 08:12:24;;;;;;;3.53;2.07;;;25.50;99.90;;;;;;5056601;28;20440;-77
2022/08/03 08:14:51;;;;;;;6.00;2.73;;;25.60;99.90;;;;;;5054343;28;21015;-80
2022/08/03 08:17:18;;;;;;;7.50;2.30;;;25.70;99.90;;;;;;5055478;28;20459;-77
2022/08/03 08:19:45;;;;;;;5.27;2.63;;;25.80;99.90;;;;;;5055194;28;20563;-80
2022/08/03 08:22:12;;;;;;;5.83;2.53;;;25.90;99.90;;;;;;5055724;28;20462;-78
2022/08/03 08:24:39;;;;;;;3.90;2.50;;;26.00;99.90;;;;;;5053755;28;20444;-79
2022/08/03 08:27:07;;;;;;;4.53;2.30;;;26.10;99.90;;;;;;5054256;28;20539;-79
2022/08/03 08:29:35;;;;;;;5.20;2.00;;;26.20;99.90;;;;;;5054468;28;20462;-78
2022/08/03 08:32:02;;;;;;;3.53;2.53;;;26.30;99.90;;;;;;5054132;28;20903;-78
2022/08/03 08:34:29;;;;;;;7.20;2.90;;;26.50;99.90;;;;;;5054002;28;20487;-78
2022/08/03 08:36:56;;;;;;;8.10;3.20;;;26.60;99.90;;;;;;5054490;28;20448;-80
2022/08/03 08:39:23;;;;;;;4.73;2.17;;;26.60;99.90;;;;;;5054828;28;20491;-80
2022/08/03 08:41:51;;;;;;;7.23;2.43;;;26.80;99.90;;;;;;5054189;28;20540;-80
2022/08/03 08:44:18;;;;;;;8.20;2.70;;;27.00;99.90;;;;;;5039956;28;20527;-77
2022/08/03 08:46:47;;;;;;;6.20;2.50;;;27.00;99.90;;;;;;5053749;28;20847;-80
2022/08/03 08:49:18;;;;;;;4.70;2.60;;;27.20;99.90;;;;;;5054044;28;20555;-77
2022/08/03 08:51:48;;;;;;;7.10;2.40;;;27.50;99.90;;;;;;5054413;28;20483;-78
2022/08/03 08:54:17;;;;;;;4.93;2.40;;;27.70;99.90;;;;;;5053676;28;20515;-80
2022/08/03 08:56:45;;;;;;;4.90;2.37;;;27.70;99.90;;;;;;5053973;28;20447;-77
2022/08/03 08:59:12;;;;;;;4.80;2.20;;;27.90;99.90;;;;;;5054640;28;20462;-80
2022/08/03 09:01:39;;;;;;;4.67;2.10;;;28.20;99.90;;;;;;5054855;28;20984;-81
2022/08/03 09:04:08;;;;;;;7.23;2.40;;;28.30;99.90;;;;;;5053972;28;20543;-80
2022/08/03 09:06:35;;;;;;;6.50;2.23;;;28.40;99.90;;;;;;5054111;28;20451;-78
2022/08/03 09:09:02;;;;;;;4.83;2.30;;;28.50;99.90;;;;;;5053069;28;20451;-81
2022/08/03 09:11:29;;;;;;;4.93;2.37;;;28.40;99.90;;;;;;5052921;28;20567;-79
2022/08/03 09:13:55;;;;;;;4.20;3.20;;;28.40;99.90;;;;;;5052733;28;20956;-79
2022/08/03 09:16:23;;;;;;;5.17;2.23;;;28.40;99.90;;;;;;5054144;28;20574;-79
2022/08/03 09:18:53;;;;;;;3.10;1.83;;;28.50;99.90;;;;;;5053733;28;20549;-80
2022/08/03 09:21:24;;;;;;;4.00;2.23;;;28.40;99.90;;;;;;5054094;28;20470;-81
2022/08/03 09:23:55;;;;;;;5.17;2.50;;;28.60;99.90;;;;;;5052232;28;20435;-78
2022/08/03 09:26:23;;;;;;;3.50;1.93;;;28.70;99.90;;;;;;5053982;28;20456;-79
2022/08/03 09:29:00;;;;;;;6.13;2.40;;;29.00;99.90;;;;;;5053553;28;20475;-78
2022/08/03 09:31:32;;;;;;;5.33;2.40;;;29.20;99.90;;;;;;5035145;28;20476;-79
2022/08/03 09:34:01;;;;;;;4.77;2.53;;;29.10;99.90;;;;;;5052595;28;20511;-79
2022/08/03 09:36:37;;;;;;;5.63;2.30;;;29.20;99.90;;;;;;5053194;28;20483;-81
2022/08/03 09:39:05;;;;;;;5.03;2.43;;;29.70;99.90;;;;;;5052762;28;20452;-80
2022/08/03 09:41:33;;;;;;;3.93;2.10;;;30.10;99.90;;;;;;5054692;28;20473;-82
2022/08/03 09:44:00;;;;;;;3.90;2.07;;;29.90;99.90;;;;;;5048718;28;20551;-81
2022/08/03 09:46:30;;;;;;;4.00;1.90;;;30.20;99.90;;;;;;5051268;28;20534;-78
2022/08/03 09:49:10;;;;;;;4.47;1.67;;;30.50;99.90;;;;;;5052837;28;20450;-81
2022/08/03 09:51:39;;;;;;;4.93;1.87;;;30.70;99.90;;;;;;5052430;28;20474;-81
2022/08/03 09:54:06;;;;;;;3.90;2.00;;;31.00;99.90;;;;;;5052028;28;20458;-80
2022/08/03 09:56:45;;;;;;;2.43;1.53;;;31.00;99.90;;;;;;5037233;28;21018;-78
2022/08/03 09:59:23;;;;;;;4.60;1.90;;;30.80;99.90;;;;;;5053372;28;20452;-77
2022/08/03 10:01:50;;;;;;;4.00;1.70;;;30.80;99.90;;;;;;5052404;28;20478;-78
2022/08/03 10:04:36;;;;;;;3.00;1.67;;;31.20;99.90;;;;;;5052480;28;20452;-78
2022/08/03 10:07:06;;;;;;;4.60;1.63;;;31.40;99.90;;;;;;5052733;28;20443;-79
2022/08/03 10:09:33;;;;;;;5.00;2.30;;;31.60;99.90;;;;;;5053550;28;20487;-79
2022/08/03 10:12:08;;;;;;;3.37;1.63;;;31.40;99.90;;;;;;5036437;28;20555;-81
2022/08/03 10:14:40;;;;;;;3.87;1.73;;;31.70;99.90;;;;;;5033314;28;20945;-79
2022/08/03 10:17:09;;;;;;;5.53;2.17;;;31.80;99.90;;;;;;5042425;28;20471;-82
2022/08/03 10:19:36;;;;;;;4.57;1.90;;;31.80;99.90;;;;;;5053795;28;20948;-81
2022/08/03 10:22:07;;;;;;;8.33;2.17;;;31.80;99.90;;;;;;5053317;28;20476;-79
2022/08/03 10:24:35;;;;;;;4.47;2.20;;;31.50;99.90;;;;;;5052645;28;20455;-78
2022/08/03 10:27:04;;;;;;;7.20;1.77;;;31.40;99.90;;;;;;5054401;28;20456;-81
2022/08/03 10:29:37;;;;;;;4.20;2.10;;;31.70;99.90;;;;;;5054315;28;21002;-81
2022/08/03 10:32:13;;;;;;;3.50;1.60;;;31.70;99.90;;;;;;5057209;28;20516;-83
2022/08/03 10:34:42;;;;;;;9.13;2.37;;;31.90;99.90;;;;;;5059972;28;20467;-80
2022/08/03 10:37:16;;;;;;;4.57;2.27;;;32.20;99.90;;;;;;5073684;28;20455;-81
2022/08/03 10:39:55;;;;;;;5.93;2.20;;;32.40;99.90;;;;;;5060945;28;20451;-79
2022/08/03 10:42:24;;;;;;;3.30;2.30;;;32.30;99.90;;;;;;5053198;28;20424;-79
2022/08/03 10:45:02;;;;;;;5.00;2.20;;;32.30;99.90;;;;;;5052364;28;20456;-79
2022/08/03 10:47:30;;;;;;;3.90;2.43;;;32.50;99.90;;;;;;5052626;28;20538;-77
2022/08/03 10:49:57;;;;;;;4.20;1.87;;;32.60;99.90;;;;;;5054496;28;20447;-79
2022/08/03 10:52:25;;;;;;;4.37;2.07;;;32.40;99.90;;;;;;5056139;28;20526;-79
2022/08/03 10:57:48;;;;;;;12.43;2.40;;;32.50;99.90;;;;;;5056156;28;20454;-76
2022/08/03 11:00:16;;;;;;;6.67;2.63;;;32.50;99.90;;;;;;5057692;28;20558;-80
2022/08/03 11:03:17;;;;;;;3.70;1.70;;;32.80;99.90;;;;;;5056519;28;20531;-81
2022/08/03 11:05:45;;;;;;;5.90;2.00;;;32.50;99.90;;;;;;5056042;28;20440;-80
2022/08/03 11:08:28;;;;;;;6.43;1.60;;;32.40;99.90;;;;;;5056118;28;20451;-81
2022/08/03 11:11:00;;;;;;;9.80;2.10;;;32.20;99.90;;;;;;5036670;28;20916;-79
2022/08/03 11:13:30;;;;;;;5.00;1.87;;;32.30;99.90;;;;;;5035929;28;20525;-81
2022/08/03 11:15:59;;;;;;;4.53;1.83;;;32.50;99.90;;;;;;5035205;28;20484;-78
2022/08/03 11:18:28;;;;;;;4.27;1.90;;;32.60;99.90;;;;;;5037153;28;20559;-81
2022/08/03 11:20:57;;;;;;;5.37;1.57;;;32.90;99.90;;;;;;5040870;28;20472;-79
2022/08/03 11:23:46;;;;;;;4.80;1.70;;;33.60;99.90;;;;;;5055862;28;20872;-79
2022/08/03 11:26:17;;;;;;;4.53;1.30;;;33.80;99.90;;;;;;5055945;28;20455;-79
2022/08/03 11:28:46;;;;;;;3.60;1.67;;;34.20;99.90;;;;;;5056569;28;20454;-81
2022/08/03 11:31:57;;;;;;;3.90;1.63;;;34.40;99.90;;;;;;5055964;28;20555;-79
2022/08/03 11:34:24;;;;;;;6.30;1.70;;;34.50;99.90;;;;;;5053650;28;20526;-78
2022/08/03 11:37:23;;;;;;;4.40;1.63;;;34.40;99.90;;;;;;5055991;28;20523;-77
2022/08/03 11:39:55;;;;;;;4.70;1.60;;;34.00;99.90;;;;;;5054034;28;20906;-79
2022/08/03 11:42:43;;;;;;;4.37;1.73;;;34.50;99.90;;;;;;5053263;28;21169;-77
2022/08/03 11:45:10;;;;;;;5.40;1.57;;;34.50;99.90;;;;;;5046464;28;20479;-80
2022/08/03 11:47:40;;;;;;;4.50;2.10;;;34.80;99.90;;;;;;5054508;28;20538;-83
2022/08/03 11:50:08;;;;;;;7.93;2.20;;;34.80;99.90;;;;;;5054685;28;20472;-78
2022/08/03 11:52:37;;;;;;;3.57;1.47;;;35.30;99.90;;;;;;5055148;28;20559;-80
2022/08/03 11:55:11;;;;;;;4.40;2.10;;;34.70;99.90;;;;;;5053363;28;20538;-78
2022/08/03 11:57:38;;;;;;;2.87;1.30;;;34.70;99.90;;;;;;5049827;28;21038;-79
2022/08/03 12:00:29;;;;;;;3.53;1.60;;;34.90;99.90;;;;;;5053981;28;20578;-77
2022/08/03 12:03:00;;;;;;;5.33;1.60;;;34.90;99.90;;;;;;5050514;28;20495;-81
2022/08/03 12:05:38;;;;;;;2.60;1.47;;;35.10;99.90;;;;;;5054770;28;20531;-80
2022/08/03 12:08:06;;;;;;;3.73;1.67;;;35.30;99.90;;;;;;5052324;28;20550;-79
2022/08/03 12:10:35;;;;;;;8.63;1.53;;;35.40;99.90;;;;;;5051128;28;20558;-80
2022/08/03 12:13:04;;;;;;;2.90;1.33;;;35.80;99.90;;;;;;5054672;28;20547;-77
2022/08/03 12:15:33;;;;;;;5.03;1.47;;;35.60;99.90;;;;;;5055171;28;20484;-80
2022/08/03 12:18:01;;;;;;;4.47;1.63;;;35.70;99.90;;;;;;5052750;28;21134;-76
2022/08/03 12:20:30;;;;;;;4.20;1.80;;;35.80;99.90;;;;;;5049902;28;21023;-78
2022/08/03 12:23:03;;;;;;;5.87;1.90;;;35.90;99.90;;;;;;5053088;28;20554;-79
2022/08/03 12:25:31;;;;;;;5.13;1.70;;;35.90;99.90;;;;;;5058655;28;20451;-77
2022/08/03 12:28:15;;;;;;;2.87;1.43;;;35.80;99.90;;;;;;5059655;28;20599;-79
2022/08/03 12:30:42;;;;;;;4.97;1.40;;;35.80;99.90;;;;;;5052929;28;20577;-77
2022/08/03 12:33:21;;;;;;;3.80;1.63;;;35.80;99.90;;;;;;5053363;28;20532;-81
2022/08/03 12:35:50;;;;;;;3.80;1.53;;;36.10;99.90;;;;;;5051653;28;20483;-80
2022/08/03 12:38:22;;;;;;;4.17;1.60;;;35.90;99.90;;;;;;5063704;28;20451;-79
2022/08/03 12:40:57;;;;;;;4.07;1.77;;;35.80;98.90;;;;;;5050150;28;20551;-79
2022/08/03 12:43:26;;;;;;;4.03;1.40;;;36.30;99.90;;;;;;5042041;28;20450;-78
2022/08/03 12:46:07;;;;;;;3.93;1.20;;;35.80;98.50;;;;;;5052463;28;20951;-76
2022/08/03 12:48:34;;;;;;;4.23;1.60;;;36.10;99.90;;;;;;5052895;28;21072;-79
2022/08/03 12:51:08;;;;;;;3.70;1.23;;;36.00;99.90;;;;;;5053199;28;20471;-80
2022/08/03 12:53:35;;;;;;;4.37;1.43;;;35.90;99.90;;;;;;5052797;28;20479;-77
2022/08/03 12:56:03;;;;;;;6.53;1.80;;;35.50;99.90;;;;;;5052708;28;20582;-81
2022/08/03 12:58:35;;;;;;;4.20;1.40;;;35.70;99.90;;;;;;5052963;28;20455;-78
2022/08/03 13:01:04;;;;;;;3.57;1.30;;;35.70;99.90;;;;;;5053485;28;20872;-79
2022/08/03 13:03:40;;;;;;;2.77;1.13;;;35.70;99.90;;;;;;5052663;28;20496;-80
2022/08/03 13:06:12;;;;;;;4.67;1.83;;;35.40;99.20;;;;;;5052284;28;20989;-80
2022/08/03 13:08:39;;;;;;;3.90;1.37;;;35.30;97.60;;;;;;5052537;28;20448;-80
2022/08/03 13:11:20;;;;;;;7.80;1.93;;;35.60;99.90;;;;;;5053151;28;20468;-79